Millport, United Kingdom
Current Conditions -  °F | °C
As of 12:50 PM on Saturday 20 Dec 2014 (Local Time) from EGPF Reporting Station
Broken Clouds Broken Clouds  
Wind Chill: 41°   Ceiling: 2700
Heat Index: 45°   Visibility: 6mi
Dew Point: 39°   Wind: 6mph
Humidity: 81%   Direction: 210°SSW
Pressure: 30.15"   Gusts: NA
Location:  55.75°N, 4.93°W
Report Text: EGPF 201250Z AUTO 21005KT 9999 BKN027 07/04 Q1021
Loading
Personal Weather Stations






























Interactive Weather Map New forecast layout! Learn more

10-Day Weather Forecast

Advertisements
Track Severe Weather on mobile